createdAt,value
2023-04-18T00:01:54.189Z,98142.35
2023-04-18T00:06:58.976Z,98142.52
2023-04-18T00:11:44.114Z,98143.26
2023-04-18T00:16:29.588Z,98144.71
2023-04-18T00:21:14.524Z,98147.23
2023-04-18T00:25:59.848Z,98147.27
2023-04-18T00:30:21.368Z,98148.20
2023-04-18T00:35:27.340Z,98145.04
2023-04-18T00:40:32.178Z,98147.95
2023-04-18T00:44:57.215Z,98143.14
2023-04-18T00:49:22.282Z,98137.13
2023-04-18T00:54:08.742Z,98136.13
2023-04-18T00:58:53.038Z,98135.97
2023-04-18T01:03:19.028Z,98136.06
2023-04-18T01:08:23.782Z,98137.13
2023-04-18T01:13:10.085Z,98138.45
2023-04-18T01:17:57.329Z,98136.05
2023-04-18T01:22:42.417Z,98138.39
2023-04-18T01:27:06.599Z,98136.95
2023-04-18T01:31:30.959Z,98132.52
2023-04-18T01:35:54.953Z,98135.89
2023-04-18T01:40:18.854Z,98133.11
2023-04-18T01:45:03.033Z,98134.17
2023-04-18T01:49:48.972Z,98137.60
2023-04-18T01:54:14.444Z,98142.98
2023-04-18T01:58:58.584Z,98143.97
2023-04-18T02:03:45.145Z,98146.29
2023-04-18T02:08:12.332Z,98151.96
2023-04-18T02:12:37.605Z,98151.94
2023-04-18T02:17:01.704Z,98150.55
2023-04-18T02:21:45.602Z,98156.29
2023-04-18T02:26:35.875Z,98156.42
2023-04-18T02:31:21.344Z,98152.72
2023-04-18T02:36:08.439Z,98155.86
2023-04-18T02:40:34.881Z,98152.39
2023-04-18T02:44:59.897Z,98158.11
2023-04-18T02:49:44.464Z,98159.23
2023-04-18T02:54:21.194Z,98161.60
2023-04-18T02:58:50.244Z,98157.79
2023-04-18T03:03:21.870Z,98156.95
2023-04-18T03:08:17.741Z,98156.71
2023-04-18T03:12:58.213Z,98155.17
2023-04-18T03:17:21.091Z,98164.20
2023-04-18T03:22:07.201Z,98164.45
2023-04-18T03:26:52.170Z,98161.93
2023-04-18T03:31:17.784Z,98160.92
2023-04-18T03:35:43.972Z,98162.54
2023-04-18T03:40:27.892Z,98166.52
2023-04-18T03:44:53.390Z,98171.73
2023-04-18T03:49:17.364Z,98172.94
2023-04-18T03:53:42.550Z,98171.45
2023-04-18T03:58:26.919Z,98173.73
2023-04-18T04:02:52.403Z,98171.16
2023-04-18T04:07:17.263Z,98177.02
2023-04-18T04:11:41.215Z,98179.99
2023-04-18T04:16:07.388Z,98178.88
2023-04-18T04:20:37.567Z,98183.55
2023-04-18T04:25:21.551Z,98189.11
2023-04-18T04:29:49.408Z,98191.52
2023-04-18T04:34:54.248Z,98197.91
2023-04-18T04:39:28.157Z,98198.65
2023-04-18T04:44:28.583Z,98201.59
2023-04-18T04:49:33.563Z,98205.53
2023-04-18T04:54:17.506Z,98203.23
2023-04-18T04:59:01.626Z,98207.52
2023-04-18T05:03:47.186Z,98210.57
2023-04-18T05:08:38.527Z,98213.61
2023-04-18T05:13:05.453Z,98214.41
2023-04-18T05:17:50.754Z,98224.92
2023-04-18T05:22:15.249Z,98226.12
2023-04-18T05:26:47.893Z,98228.55
2023-04-18T05:31:53.032Z,98233.57
2023-04-18T05:36:19.400Z,98236.27
2023-04-18T05:40:45.531Z,98237.23
2023-04-18T05:45:30.592Z,98243.30
2023-04-18T05:50:13.466Z,98247.80
2023-04-18T05:55:04.318Z,98238.52
2023-04-18T05:59:49.162Z,98243.21
2023-04-18T06:04:16.446Z,98243.42
2023-04-18T06:09:00.894Z,98244.00
2023-04-18T06:13:27.696Z,98244.77
2023-04-18T06:18:19.408Z,98246.08
2023-04-18T06:23:04.885Z,98248.48
2023-04-18T06:27:31.369Z,98246.30
2023-04-18T06:32:04.814Z,98250.65
2023-04-18T06:36:30.029Z,98256.27
2023-04-18T06:40:54.458Z,98251.48
2023-04-18T06:45:20.399Z,98247.35
2023-04-18T06:50:11.292Z,98244.56
2023-04-18T06:54:55.558Z,98239.44
2023-04-18T06:59:21.725Z,98234.18
2023-04-18T07:03:49.788Z,98232.57
2023-04-18T07:08:15.041Z,98234.96
2023-04-18T07:12:40.129Z,98239.93
2023-04-18T07:17:10.249Z,98239.45
2023-04-18T07:22:14.087Z,98240.34
2023-04-18T07:26:39.634Z,98237.29
2023-04-18T07:31:04.750Z,98234.14
2023-04-18T07:35:28.850Z,98230.45
2023-04-18T07:39:53.812Z,98225.79
2023-04-18T07:44:10.959Z,98228.30
2023-04-18T07:48:34.833Z,98230.44
2023-04-18T07:52:59.054Z,98225.60
2023-04-18T07:57:26.128Z,98219.63
2023-04-18T08:02:11.356Z,98216.85
2023-04-18T08:07:15.264Z,98218.59
2023-04-18T08:11:48.710Z,98219.25
2023-04-18T08:16:17.776Z,98224.32
2023-04-18T08:20:43.426Z,98220.88
2023-04-18T08:25:10.582Z,98225.48
2023-04-18T08:29:35.091Z,98234.88
2023-04-18T08:34:02.602Z,98239.36
2023-04-18T08:38:28.407Z,98239.91
2023-04-18T08:42:53.329Z,98249.39
2023-04-18T08:47:17.260Z,98252.52
2023-04-18T08:51:41.106Z,98250.14
2023-04-18T08:56:10.891Z,98256.77
2023-04-18T09:00:39.345Z,98273.64
2023-04-18T09:05:14.265Z,98277.58
2023-04-18T09:09:38.248Z,98281.09
2023-04-18T09:14:20.407Z,98285.03
2023-04-18T09:18:51.647Z,98293.10
2023-04-18T09:23:27.629Z,98293.91
2023-04-18T09:28:19.843Z,98302.79
2023-04-18T09:33:05.359Z,98306.70
2023-04-18T09:37:51.910Z,98306.43
2023-04-18T09:42:23.234Z,98305.71
2023-04-18T09:46:49.285Z,98304.83
2023-04-18T09:51:17.308Z,98311.64
2023-04-18T09:55:41.657Z,98309.75
2023-04-18T10:00:35.545Z,98304.63
2023-04-18T10:05:03.158Z,98307.01
2023-04-18T10:09:28.115Z,98296.02
2023-04-18T10:13:53.374Z,98299.54
2023-04-18T10:18:22.707Z,98300.80
2023-04-18T10:22:51.038Z,98304.88
2023-04-18T10:27:08.250Z,98301.80
2023-04-18T10:31:42.063Z,98305.02
2023-04-18T10:36:06.992Z,98300.77
2023-04-18T10:40:16.035Z,98294.83
2023-04-18T10:44:46.893Z,98285.58
2023-04-18T10:49:27.807Z,98277.67
2023-04-18T10:53:52.549Z,98275.52
2023-04-18T10:58:25.659Z,98280.70
2023-04-18T11:03:26.007Z,98278.69
2023-04-18T11:07:50.868Z,98281.73
2023-04-18T11:12:17.264Z,98277.65
2023-04-18T11:16:41.633Z,98280.20
2023-04-18T11:21:18.770Z,98283.00
2023-04-18T11:25:52.868Z,98285.74
2023-04-18T11:30:40.881Z,98292.10
2023-04-18T11:35:05.489Z,98291.60
2023-04-18T11:39:51.345Z,98288.95
2023-04-18T11:44:37.482Z,98282.50
2023-04-18T11:49:02.747Z,98283.39
2023-04-18T11:53:27.767Z,98279.80
2023-04-18T11:58:03.118Z,98269.39
2023-04-18T12:02:43.443Z,98268.34
2023-04-18T12:07:46.015Z,98269.86
2023-04-18T12:12:11.000Z,98269.61
2023-04-18T12:16:28.044Z,98265.06
2023-04-18T12:21:43.308Z,98264.73
2023-04-18T12:25:43.363Z,98266.10
2023-04-18T12:30:11.556Z,98263.13
2023-04-18T12:34:36.636Z,98260.09
2023-04-18T12:39:05.813Z,98254.90
2023-04-18T12:43:33.815Z,98260.69
2023-04-18T12:48:02.354Z,98263.64
2023-04-18T12:52:36.769Z,98259.71
2023-04-18T12:57:23.910Z,98253.41
2023-04-18T13:02:08.037Z,98248.07
2023-04-18T13:06:34.071Z,98253.70
2023-04-18T13:10:58.758Z,98255.64
2023-04-18T13:15:25.885Z,98256.59
2023-04-18T13:19:51.365Z,98257.74
2023-04-18T13:24:16.346Z,98258.20
2023-04-18T13:28:41.115Z,98260.60
2023-04-18T13:33:05.157Z,98260.10
2023-04-18T13:37:30.160Z,98259.70
2023-04-18T13:42:01.943Z,98258.02
2023-04-18T13:46:26.816Z,98258.27
2023-04-18T13:50:51.244Z,98254.71
2023-04-18T13:55:32.241Z,98262.01
2023-04-18T13:59:56.548Z,98258.70
2023-04-18T14:04:22.317Z,98261.73
2023-04-18T14:08:48.083Z,98264.97
2023-04-18T14:13:13.316Z,98262.53
2023-04-18T14:18:21.328Z,98269.35
2023-04-18T14:23:06.509Z,98266.42
2023-04-18T14:27:50.331Z,98269.32
2023-04-18T14:32:14.151Z,98266.97
2023-04-18T14:36:43.761Z,98270.05
2023-04-18T14:41:28.080Z,98274.99
2023-04-18T14:45:54.259Z,98273.04
2023-04-18T14:50:18.678Z,98270.14
2023-04-18T14:54:43.605Z,98272.64
2023-04-18T14:59:15.619Z,98271.92
2023-04-18T15:04:00.655Z,98265.42
2023-04-18T15:08:52.940Z,98260.31
2023-04-18T15:13:41.064Z,98256.80
2023-04-18T15:18:07.062Z,98255.36
2023-04-18T15:22:30.755Z,98255.36
2023-04-18T15:26:57.997Z,98249.19
2023-04-18T15:31:27.972Z,98253.17
2023-04-18T15:36:17.489Z,98259.84
2023-04-18T15:41:03.613Z,98265.73
2023-04-18T15:46:01.391Z,98266.61
2023-04-18T15:50:27.724Z,98274.61
2023-04-18T15:55:05.582Z,98272.71
2023-04-18T15:59:31.578Z,98276.43
2023-04-18T16:04:03.677Z,98278.80
2023-04-18T16:08:37.520Z,98285.90
2023-04-18T16:13:05.028Z,98292.98
2023-04-18T16:17:33.234Z,98294.52
2023-04-18T16:22:01.980Z,98300.15
2023-04-18T16:26:31.661Z,98305.91
2023-04-18T16:30:57.485Z,98307.27
2023-04-18T16:35:42.500Z,98304.90
2023-04-18T16:40:10.131Z,98306.02
2023-04-18T16:44:40.013Z,98312.13
2023-04-18T16:49:32.439Z,98308.71
2023-04-18T16:54:37.264Z,98317.70
2023-04-18T16:59:07.160Z,98322.63
2023-04-18T17:03:52.627Z,98323.15
2023-04-18T17:08:24.307Z,98328.05
2023-04-18T17:12:52.308Z,98334.48
2023-04-18T17:17:19.264Z,98340.83
2023-04-18T17:21:43.159Z,98345.84
2023-04-18T17:26:13.676Z,98349.08
2023-04-18T17:31:01.629Z,98349.02
2023-04-18T17:35:47.733Z,98358.44
2023-04-18T17:40:51.653Z,98366.52
2023-04-18T17:45:38.021Z,98379.31
2023-04-18T17:50:12.035Z,98386.39
2023-04-18T17:54:39.468Z,98387.45
2023-04-18T17:59:25.411Z,98393.06
2023-04-18T18:04:24.229Z,98395.46
2023-04-18T18:08:52.790Z,98393.86
2023-04-18T18:13:31.772Z,98398.53
2023-04-18T18:17:55.886Z,98401.47
2023-04-18T18:22:19.908Z,98408.58
2023-04-18T18:26:44.297Z,98414.37
2023-04-18T18:31:10.915Z,98416.16
2023-04-18T18:35:36.158Z,98418.89
2023-04-18T18:40:22.118Z,98418.39
2023-04-18T18:45:08.619Z,98420.60
2023-04-18T18:50:17.168Z,98426.13
2023-04-18T18:55:07.199Z,98427.19
2023-04-18T18:59:54.528Z,98430.88
2023-04-18T19:04:38.020Z,98426.91
2023-04-18T19:09:08.332Z,98432.19
2023-04-18T19:13:32.256Z,98427.98
2023-04-18T19:17:57.965Z,98430.60
2023-04-18T19:22:21.789Z,98425.04
2023-04-18T19:26:56.868Z,98421.83
2023-04-18T19:32:05.057Z,98423.77
2023-04-18T19:37:00.662Z,98422.49
2023-04-18T19:42:05.475Z,98424.89
2023-04-18T19:46:52.288Z,98429.62
2023-04-18T19:51:56.341Z,98433.39
2023-04-18T19:56:21.708Z,98430.34
2023-04-18T20:00:49.720Z,98426.15
2023-04-18T20:05:16.111Z,98423.31
2023-04-18T20:10:07.430Z,98418.32
2023-04-18T20:14:40.006Z,98416.80
2023-04-18T20:19:26.403Z,98415.92
2023-04-18T20:24:39.411Z,98410.48
2023-04-18T20:29:40.924Z,98412.73
2023-04-18T20:34:48.018Z,98416.41
2023-04-18T20:39:30.824Z,98413.64
2023-04-18T20:44:40.378Z,98412.30
2023-04-18T20:49:05.414Z,98406.69
2023-04-18T20:53:31.337Z,98409.15
2023-04-18T20:57:56.279Z,98405.36
2023-04-18T21:02:21.487Z,98402.95
2023-04-18T21:06:47.593Z,98399.46
2023-04-18T21:11:17.299Z,98391.70
2023-04-18T21:15:42.960Z,98388.02
2023-04-18T21:20:07.888Z,98389.15
2023-04-18T21:24:33.437Z,98388.20
2023-04-18T21:28:59.355Z,98387.55
2023-04-18T21:33:45.847Z,98383.92
2023-04-18T21:38:39.504Z,98377.52
2023-04-18T21:43:04.864Z,98374.79
2023-04-18T21:47:51.344Z,98372.56
2023-04-18T21:52:23.849Z,98369.27
2023-04-18T21:57:05.030Z,98373.51
2023-04-18T22:01:34.779Z,98371.43
2023-04-18T22:06:48.114Z,98367.86
2023-04-18T22:11:17.209Z,98361.80
2023-04-18T22:15:47.273Z,98353.34
2023-04-18T22:20:52.119Z,98350.59
2023-04-18T22:25:37.108Z,98354.71
2023-04-18T22:30:15.108Z,98353.50
2023-04-18T22:34:42.492Z,98349.93
2023-04-18T22:38:47.657Z,98343.02
2023-04-18T22:43:31.827Z,98338.70
2023-04-18T22:48:03.390Z,98340.09
2023-04-18T22:52:29.736Z,98339.92
2023-04-18T22:57:00.560Z,98332.73
2023-04-18T23:01:33.299Z,98328.02
2023-04-18T23:06:02.939Z,98320.80
2023-04-18T23:10:32.623Z,98318.08
2023-04-18T23:14:56.598Z,98311.89
2023-04-18T23:19:40.574Z,98308.34
2023-04-18T23:24:05.571Z,98308.03
2023-04-18T23:28:30.753Z,98300.11
2023-04-18T23:32:55.819Z,98299.88
2023-04-18T23:37:20.785Z,98295.77
2023-04-18T23:41:48.773Z,98292.98
2023-04-18T23:46:13.297Z,98285.83
2023-04-18T23:50:37.581Z,98283.20
2023-04-18T23:55:03.523Z,98279.81
2023-04-18T23:59:31.445Z,98272.96
